Tiempo atmosférico en la estación meteorológica de Coruña Del Conde, Burgos (945 m.)



Fecha
DESCASC
Temp. máxima en grados centígrados (hora)
DESCASC
Temp. mínima en grados centígrados (hora)
DESCASC
Temp. media en grados centígrados
DESCASC
Racha de viento máxima en m/sg (hora)
DESCASC
Velocidad máxima media en intervalos de 10 minutos(hora)
DESCASC
Precipitaciones diarias en mm
DESCASC
Precipitaciones de 00:00 a 06:00 en mm
DESCASC
Precipitaciones de 06:00 a 12:00 en mm
DESCASC
Precipitaciones de 12:00 a 18:00 en mm
DESCASC
Precipitaciones de 18:00 a 24:00 en mm
DESCASC
13-10-2019 24.1 (15:50) 13.8 (08:40) 19 13.33 (16:50) 8.33 (17:00) 0 0 0 0 0
12-10-2019 25.2 (15:20) 15.3 (07:50) 20.3 14.72 (23:59) 9.17 (23:50) 0 0 0 0 0
11-10-2019 26.5 (16:10) 11.5 (07:40) 19 7.22 (20:20) 4.72 (20:20) 0 0 0 0 0
10-10-2019 23.6 (17:50) 6.3 (00:00) 15 8.06 (11:20) 4.72 (11:10) 0 0 0 0 0
09-10-2019 20.4 (16:00) 9.8 (00:00) 15.1 7.78 (15:40) 4.72 (14:20) 0 0 0 0 0
08-10-2019 27.3 (17:20) 9.7 (00:00) 18.5 7.78 (14:40) 3.89 (15:30) 0 0 0 0 0
07-10-2019 24.5 (16:20) 6.4 (00:00) 15.5 8.33 (17:30) 5.28 (16:50) 0 0 0 0 0
06-10-2019 22.1 (17:10) 7.6 (00:00) 14.9 9.44 (16:00) 5 (18:30) 0 0 0 0 0
05-10-2019 23.8 (16:50) 8.3 (00:00) 16 6.39 (16:40) 3.61 (17:40) 0 0 0 0 0
04-10-2019 23.3 (16:20) 6.6 (00:00) 14.9 8.06 (17:00) 5 (14:40) 0 0 0 0 0
03-10-2019 22.1 (17:20) 6 (00:00) 14.1 8.61 (15:00) 5.56 (14:20) 0 0 0 0 0
02-10-2019 18.6 (16:20) 9.1 (00:00) 13.9 9.72 (15:20) 5.28 (13:40) 0 0 0 0 0
01-10-2019 21.6 (17:10) 10.1 (00:00) 15.9 10 (18:30) 6.11 (15:00) 0 0 0 0 0
30-09-2019 25.8 (17:20) 9.2 (00:00) 17.5 5.83 (14:50) 3.06 (17:50) 0 0 0 0 0
29-09-2019 25.8 (17:10) 8.1 (00:00) 16.9 8.61 (14:50) 5 (14:50) 0 0 0 0 0
28-09-2019 24.8 (17:30) 7.9 (00:00) 16.3 5.83 (17:20) 3.06 (17:20) 0 0 0 0 0
27-09-2019 23.3 (17:00) 7.5 (00:00) 15.4 7.22 (15:40) 4.17 (15:10) 0 0 0 0 0
26-09-2019 24.4 (17:40) 8.3 (00:00) 16.3 7.5 (16:00) 4.72 (17:00) 0 0 0 0 0
25-09-2019 18.5 (16:30) 8.5 (00:00) 13.5 7.5 (03:10) 4.17 (01:50) 0 0 0 0 0
24-09-2019 19.9 (19:00) 8.6 (00:00) 14.3 10.56 (15:20) 6.11 (15:00) 0 0 0 0 0
23-09-2019 20.6 (16:50) 6.7 (00:00) 13.7 6.67 (14:00) 3.33 (17:00) 0 0 0 0 0
22-09-2019 17.8 (17:30) 11 (00:00) 14.4 11.67 (05:10) 6.67 (05:10) 3.2 1 2.2 0 0
21-09-2019 19.2 (14:20) 12.9 (00:00) 16.1 8.33 (17:30) 5 (00:10) 5.4 4.4 0.2 0.8 0
20-09-2019 24.8 (15:10) 14.7 (00:00) 19.7 11.94 (23:50) 7.5 (23:50) 6.2 0 0 4.4 1.8
19-09-2019 25.4 (17:10) 11.6 (00:00) 18.5 7.22 (16:00) 3.61 (23:59) 0 0 0 0 0
18-09-2019 23.6 (16:50) 11.9 (00:00) 17.8 8.06 (18:10) 5.28 (18:20) 7.4 7.4 0 0 0
17-09-2019 26.9 (17:40) 13.3 (00:00) 20.1 16.67 (22:00) 8.61 (22:00) 22.8 0 0 0 22.8

Gráficas

Temp. máximas Temp. mínimas Temp. medias Precipitaciones Rachas de viento máximas Velocidades máximas media en intervalos de 10 minutos

Datos horarios

Fecha y hora oficial Temperatura (ºC) Velocidad del viento (km/h) Dirección del viento Racha (km/h) Dirección de racha Precipitación (mm) Presión (hPa) Tendencia (hPa) Humedad (%)
2019-10-16 23:00:00 12.4 3 Sur 7 Sudeste 0 -- -- 50
2019-10-16 22:00:00 12.8 5 Sudeste 7 Sudeste 0 -- -- 46
2019-10-16 21:00:00 14 3 Sudoeste 12 Oeste 0 -- -- 41
2019-10-16 20:00:00 14.2 3 Oeste 9 Sudoeste 0 -- -- 38
2019-10-16 19:00:00 15.8 8 Sudoeste 19 Sudoeste 0 -- -- 35
2019-10-16 18:00:00 16.5 15 Sudoeste 27 Sudoeste 0 -- -- 33
2019-10-16 17:00:00 17.4 14 Sudoeste 26 Sudoeste 0 -- -- 36
2019-10-16 16:00:00 16.8 13 Sudoeste 28 Sudoeste 0 -- -- 44
2019-10-16 15:00:00 15.2 18 Oeste 28 Oeste 0 -- -- 49
2019-10-16 14:00:00 14.8 17 Oeste 28 Oeste 0 -- -- 51
2019-10-16 13:00:00 13.9 21 Sudoeste 31 Sudoeste 0 -- -- 53
2019-10-16 12:00:00 11.8 16 Sudoeste 28 Sudoeste 0 -- -- 68
2019-10-16 11:00:00 10.4 8 Sudoeste 16 Sudoeste 0 -- -- 77
2019-10-16 10:00:00 8.1 3 Sur 5 Sudoeste 0 -- -- 82
2019-10-16 09:00:00 6.1 0 Calma 3 Sudeste 0 -- -- 87
2019-10-16 08:00:00 5.8 0 Calma 4 Oeste 0 -- -- 86
2019-10-16 07:00:00 6.7 2 Oeste 6 Oeste 0 -- -- 82
2019-10-16 06:00:00 7.2 4 Oeste 8 Oeste 0 -- -- 81
2019-10-16 05:00:00 6.8 0 Calma 12 Oeste 0 -- -- 81
2019-10-16 04:00:00 7.7 6 Oeste 12 Oeste 0 -- -- 77
2019-10-16 03:00:00 7.5 0 Calma 6 Este 0 -- -- 79
2019-10-16 02:00:00 6.9 0 Calma 7 Este 0 -- -- 81
2019-10-16 01:00:00 6.9 5 Este 8 Este 0 -- -- 75
2019-10-16 00:00:00 7.4 3 Sudeste 5 Sudeste 0 -- -- 71
2019-10-15 23:00:00 7.9 3 Sudeste 5 Sur 0 -- -- 69
2019-10-15 22:00:00 8.3 2 Sudoeste 5 Sudeste 0 -- -- 68
2019-10-15 21:00:00 9 2 Sudeste 6 Oeste 0 -- -- 64
2019-10-15 20:00:00 10.2 5 Sudoeste 17 Oeste 0 -- -- 59
2019-10-15 19:00:00 11.5 9 Oeste 31 Oeste 0 -- -- 54
2019-10-15 18:00:00 12.2 16 Oeste 32 Oeste 0 -- -- 50
2019-10-15 17:00:00 13.2 18 Sudoeste 34 Sudoeste 0 -- -- 50
2019-10-15 16:00:00 12.3 22 Oeste 39 Oeste 0 -- -- 55
2019-10-15 15:00:00 11.1 13 Oeste 24 Sudoeste 0 -- -- 63
2019-10-15 14:00:00 10 15 Sudoeste 24 Oeste 0 -- -- 65
2019-10-15 13:00:00 8.9 15 Sudoeste 26 Sudoeste 0 -- -- 72
2019-10-15 12:00:00 7.8 13 Oeste 24 Sudoeste 0 -- -- 78
2019-10-15 11:00:00 6.1 12 Oeste 22 Oeste 0 -- -- 85
2019-10-15 10:00:00 5.1 12 Oeste 24 Oeste 0 -- -- 90
2019-10-15 09:00:00 4.8 15 Oeste 31 Oeste 0 -- -- 91
2019-10-15 08:00:00 4.6 12 Oeste 27 Oeste 0 -- -- 91
2019-10-15 07:00:00 4.5 10 Oeste 26 Oeste 0 -- -- 92
2019-10-15 06:00:00 4.5 12 Oeste 26 Oeste 0 -- -- 91
2019-10-15 05:00:00 4.9 18 Oeste 32 Oeste 0 -- -- 89
2019-10-15 04:00:00 5.4 16 Oeste 36 Oeste 0 -- -- 89
2019-10-15 03:00:00 5.4 18 Oeste 32 Oeste 0 -- -- 88
2019-10-15 02:00:00 5.4 15 Oeste 31 Oeste 0 -- -- 88
2019-10-15 01:00:00 5.9 19 Oeste 33 Sudoeste 0 -- -- 87
2019-10-15 00:00:00 6.5 18 Oeste 36 Sudoeste 0 -- -- 85
2019-10-14 23:00:00 6.8 17 Oeste 29 Sudoeste 0 -- -- 88
2019-10-14 22:00:00 7.6 14 Sudoeste 26 Oeste 0 -- -- 89
2019-10-14 21:00:00 8.1 12 Sudoeste 24 Sudoeste 0 -- -- 88
2019-10-14 20:00:00 8.1 9 Sudoeste 28 Sudoeste 0.8 -- -- 88
2019-10-14 19:00:00 8.3 17 Sudoeste 42 Sudoeste 1.4 -- -- 89
2019-10-14 18:00:00 10.6 27 Oeste 55 Oeste 0 -- -- 73
2019-10-14 17:00:00 15.1 26 Oeste 43 Oeste 0 -- -- 54
2019-10-14 16:00:00 17.7 19 Oeste 43 Sudoeste 0 -- -- 50
2019-10-14 15:00:00 16.5 26 Oeste 41 Oeste 0 -- -- 57
2019-10-14 14:00:00 15.7 21 Oeste 39 Oeste 0 -- -- 60
2019-10-14 13:00:00 13.8 22 Sudoeste 55 Oeste 0 -- -- 66
2019-10-14 12:00:00 19 31 Sur 46 Sudoeste 0 -- -- 47
2019-10-14 11:00:00 17.3 18 Sur 31 Sur 0 -- -- 56
2019-10-14 10:00:00 16.9 15 Sur 38 Sudeste 0 -- -- 57
2019-10-14 09:00:00 16.5 19 Sudeste 29 Sur 0 -- -- 57
2019-10-14 08:00:00 16 14 Sudeste 27 Sudeste 0 -- -- 60
2019-10-14 07:00:00 15.4 17 Sudeste 26 Sudeste 0 -- -- 60
2019-10-14 06:00:00 14.8 13 Sudeste 21 Sudeste 0 -- -- 56
2019-10-14 05:00:00 15.1 15 Sudeste 30 Este 0 -- -- 58
2019-10-14 04:00:00 15.8 21 Sudeste 34 Sudeste 0 -- -- 56
2019-10-14 03:00:00 17.1 24 Sudeste 35 Sudeste 0 -- -- 50
2019-10-14 02:00:00 14.6 5 Este 12 Este 0 -- -- 59
2019-10-14 01:00:00 14.2 7 Sudeste 16 Este 0 -- -- 59
2019-10-14 00:00:00 14.1 6 Este 12 Este 0 -- -- 55
2019-10-13 23:00:00 14.7 7 Sudeste 18 Sudeste 0 -- -- 53
2019-10-13 22:00:00 16 11 Sudeste 24 Sudeste 0 -- -- 50
2019-10-13 21:00:00 17.1 13 Sudeste 23 Sudeste 0 -- -- 46
2019-10-13 20:00:00 19 16 Sur 37 Sur 0 -- -- 36
2019-10-13 19:00:00 21.7 22 Sur 41 Sur 0 -- -- 31
2019-10-13 18:00:00 23.2 26 Sur 42 Sur 0 -- -- 30
2019-10-13 17:00:00 23.6 30 Sudoeste 48 Sudoeste 0 -- -- 24
2019-10-13 16:00:00 24 23 Sur 41 Sur 0 -- -- 31
2019-10-13 15:00:00 23.4 26 Sur 43 Sur 0 -- -- 33
2019-10-13 14:00:00 23.3 22 Sur 37 Sur 0 -- -- 33
2019-10-13 13:00:00 22.5 13 Sudoeste 26 Sur 0 -- -- 38
2019-10-13 12:00:00 20.8 15 Sur 22 Sur 0 -- -- 47
2019-10-13 11:00:00 18.8 11 Sur 22 Sudeste 0 -- -- 59
2019-10-13 10:00:00 16.5 15 Sudeste 26 Sudeste 0 -- -- 73
2019-10-13 09:00:00 14 15 Sudeste 24 Sudeste 0 -- -- 79
2019-10-13 08:00:00 14.2 15 Sudeste 28 Sudeste 0 -- -- 76
2019-10-13 07:00:00 14.9 16 Sudeste 34 Sur 0 -- -- 65
2019-10-13 06:00:00 15.3 16 Sur 26 Sur 0 -- -- 60
2019-10-13 05:00:00 14 12 Sudeste 15 Sudeste 0 -- -- 59
2019-10-13 04:00:00 14.9 11 Sudeste 18 Sudeste 0 -- -- 58
2019-10-13 03:00:00 15.9 9 Sudeste 29 Sudeste 0 -- -- 56
2019-10-13 02:00:00 17.4 23 Sudeste 34 Sudeste 0 -- -- 50
2019-10-13 01:00:00 17.4 22 Sudeste 44 Sudeste 0 -- -- 51
2019-10-13 00:00:00 18.4 32 Sur 53 Sur 0 -- -- 49
2019-10-12 23:00:00 20.3 23 Sur 32 Sur 0 -- -- 39
2019-10-12 22:00:00 20 17 Sur 33 Sur 0 -- -- 40
2019-10-12 21:00:00 20.2 14 Sur 23 Sur 0 -- -- 44
2019-10-12 20:00:00 21.4 13 Sur 36 Sur 0 -- -- 40
2019-10-12 19:00:00 23.1 20 Sur 35 Sur 0 -- -- 36
2019-10-12 18:00:00 24.2 24 Sur 37 Sudoeste 0 -- -- 35
2019-10-12 17:00:00 25.1 14 Sudoeste 36 Sudoeste 0 -- -- 30
2019-10-12 16:00:00 25.1 18 Sudoeste 41 Sudoeste 0 -- -- 30
2019-10-12 15:00:00 24.2 18 Sur 32 Sur 0 -- -- 34
2019-10-12 14:00:00 23.4 19 Sudeste 29 Sudeste 0 -- -- 45
2019-10-12 13:00:00 22.5 18 Sudeste 28 Sudeste 0 -- -- 46
2019-10-12 12:00:00 20.6 10 Sudeste 22 Sudeste 0 -- -- 49
2019-10-12 11:00:00 19.2 6 Sudeste 9 Sudeste 0 -- -- 55
2019-10-12 10:00:00 17.3 8 Sudeste 12 Sudeste 0 -- -- 61
2019-10-12 09:00:00 16.2 7 Este 14 Sudeste 0 -- -- 65
2019-10-12 08:00:00 15.4 5 Sudeste 9 Sudeste 0 -- -- 69
2019-10-12 07:00:00 16.1 2 Este 15 Este 0 -- -- 67
2019-10-12 06:00:00 16.4 7 Sudeste 14 Este 0 -- -- 66
2019-10-12 05:00:00 15.9 8 Sudeste 10 Sudeste 0 -- -- 69
2019-10-12 04:00:00 16.3 3 Este 5 Este 0 -- -- 69
2019-10-12 03:00:00 15.8 3 Norte 15 Este 0 -- -- 74
2019-10-12 02:00:00 16.9 9 Este 12 Este 0 -- -- 72
2019-10-12 01:00:00 16.5 7 Este 12 Este 0 -- -- 71
2019-10-12 00:00:00 17.7 8 Este 11 Este 0 -- -- 66
2019-10-11 23:00:00 17.1 4 Nordeste 12 Sur 0 -- -- 67
2019-10-11 22:00:00 18.5 5 Este 13 Sudeste 0 -- -- 62
2019-10-11 21:00:00 20.7 10 Sudeste 26 Sur 0 -- -- 52
2019-10-11 20:00:00 22.6 10 Sur 19 Sudoeste 0 -- -- 48
2019-10-11 19:00:00 24.8 6 Sudeste 8 Sudeste 0 -- -- 44
2019-10-11 18:00:00 25.9 4 Nordeste 12 Sudeste 0 -- -- 41
2019-10-11 17:00:00 26.2 2 Sudoeste 13 Sur 0 -- -- 40
2019-10-11 16:00:00 26.4 7 Sudoeste 19 Oeste 0 -- -- 39
2019-10-11 15:00:00 25.5 3 Nordeste 14 Sudoeste 0 -- -- 43
2019-10-11 14:00:00 24.6 9 Sudoeste 15 Sudoeste 0 -- -- 45
2019-10-11 13:00:00 23 6 Sur 17 Sudoeste 0 -- -- 50
2019-10-11 12:00:00 20.8 8 Sudeste 14 Sudeste 0 -- -- 55
2019-10-11 11:00:00 18.2 9 Sudeste 17 Sudeste 0 -- -- 65
2019-10-11 10:00:00 15.4 8 Sudeste 18 Este 0 -- -- 74
2019-10-11 09:00:00 12.3 8 Sudeste 15 Este 0 -- -- 81
2019-10-11 08:00:00 11.8 10 Este 17 Este 0 -- -- 81
2019-10-11 07:00:00 12 8 Este 17 Sudeste 0 -- -- 76
2019-10-11 06:00:00 11.8 9 Este 18 Sudeste 0 -- -- 76
2019-10-11 05:00:00 11.8 8 Sudeste 13 Sudeste 0 -- -- 75
2019-10-11 04:00:00 12.3 6 Nordeste 21 Este 0 -- -- 72
2019-10-11 03:00:00 13.4 13 Este 22 Este 0 -- -- 69
2019-10-11 02:00:00 13.7 15 Este 23 Este 0 -- -- 70
2019-10-11 01:00:00 14.6 14 Este 22 Este 0 -- -- 68
2019-10-11 00:00:00 15.4 14 Este 22 Este 0 -- -- 67
2019-10-10 23:00:00 15.9 13 Este 19 Este 0 -- -- 66
2019-10-10 22:00:00 16.1 9 Este 13 Este 0 -- -- 63
2019-10-10 21:00:00 17.7 10 Este 12 Este 0 -- -- 53
2019-10-10 20:00:00 20.2 4 Este 5 Este 0 -- -- 44
2019-10-10 19:00:00 22.9 5 Sur 11 Sudeste 0 -- -- 40
2019-10-10 18:00:00 23.3 6 Sur 13 Sudeste 0 -- -- 38
2019-10-10 17:00:00 23.3 8 Sur 12 Sur 0 -- -- 37
2019-10-10 16:00:00 22.9 6 Sudoeste 16 Sudeste 0 -- -- 40
2019-10-10 15:00:00 21.3 8 Este 20 Sudeste 0 -- -- 45
2019-10-10 14:00:00 19.9 9 Este 27 Sudeste 0 -- -- 50
2019-10-10 13:00:00 18.2 9 Este 25 Sudeste 0 -- -- 56
2019-10-10 12:00:00 15.5 15 Sudeste 29 Este 0 -- -- 61
2019-10-10 11:00:00 13 14 Sudeste 25 Este 0 -- -- 66
2019-10-10 10:00:00 9.9 12 Este 20 Este 0 -- -- 77
2019-10-10 09:00:00 7.4 7 Sudeste 11 Sudeste 0 -- -- 85
2019-10-10 08:00:00 6.6 5 Nordeste 11 Este 0 -- -- 87
2019-10-10 07:00:00 6.6 7 Nordeste 14 Este 0 -- -- 89
2019-10-10 06:00:00 7 7 Este 18 Este 0 -- -- 87
2019-10-10 05:00:00 7.1 8 Este 13 Este 0 -- -- 86
2019-10-10 04:00:00 7.9 9 Este 14 Este 0 -- -- 84
2019-10-10 03:00:00 8.3 9 Este 18 Sudeste 0 -- -- 84
2019-10-10 02:00:00 9.1 10 Sudeste 17 Este 0 -- -- 83
2019-10-10 01:00:00 9.7 10 Este 14 Este 0 -- -- 82
2019-10-10 00:00:00 10.2 10 Sudeste 13 Sudeste 0 -- -- 77
2019-10-09 23:00:00 10.1 7 Sudeste 11 Este 0 -- -- 73
2019-10-09 22:00:00 11.3 3 Este 5 Este 0 -- -- 69
2019-10-09 21:00:00 13.2 3 Noroeste 13 Oeste 0 -- -- 63
2019-10-09 20:00:00 15.1 6 Noroeste 19 Oeste 0 -- -- 56
2019-10-09 19:00:00 18 14 Noroeste 22 Noroeste 0 -- -- 47
2019-10-09 18:00:00 19.4 13 Noroeste 26 Oeste 0 -- -- 45
2019-10-09 17:00:00 20.2 14 Noroeste 26 Noroeste 0 -- -- 44
2019-10-09 16:00:00 20.4 13 Oeste 28 Oeste 0 -- -- 44
2019-10-09 15:00:00 19.9 15 Oeste 27 Oeste 0 -- -- 46
2019-10-09 14:00:00 19 14 Oeste 26 Oeste 0 -- -- 50
2019-10-09 13:00:00 17.4 12 Oeste 24 Oeste 0 -- -- 61
2019-10-09 12:00:00 16.7 10 Oeste 17 Oeste 0 -- -- 69
2019-10-09 11:00:00 14.5 6 Sudoeste 15 Oeste 0 -- -- 80
2019-10-09 10:00:00 12.6 9 Noroeste 15 Oeste 0 -- -- 90
2019-10-09 09:00:00 11.3 3 Noroeste 19 Oeste 0 -- -- 91
2019-10-09 08:00:00 11.4 7 Sur 12 Sudoeste 0 -- -- 82
2019-10-09 07:00:00 12.6 3 Oeste 9 Noroeste 0 -- -- 82
2019-10-09 06:00:00 10.4 5 Norte 9 Oeste 0 -- -- 82
2019-10-09 05:00:00 13.7 3 Sudoeste 8 Oeste 0 -- -- 74
2019-10-09 04:00:00 14.2 3 Oeste 9 Sur 0 -- -- 69
2019-10-09 03:00:00 15 4 Sur 10 Sur 0 -- -- 66
2019-10-09 02:00:00 14.5 2 Noroeste 10 Sudoeste 0 -- -- 63
2019-10-09 01:00:00 16.6 4 Sudeste 6 Sur 0 -- -- 56
2019-10-09 00:00:00 16.9 2 Sur 8 Sur 0 -- -- 54
2019-10-08 23:00:00 18.1 4 Sur 8 Norte 0 -- -- 49
2019-10-08 22:00:00 19.3 5 Norte 8 Norte 0 -- -- 46
2019-10-08 21:00:00 20.7 6 Noroeste 10 Oeste 0 -- -- 42
2019-10-08 20:00:00 22.4 6 Noroeste 19 Oeste 0 -- -- 38
2019-10-08 19:00:00 26.1 10 Oeste 20 Sudoeste 0 -- -- 32
2019-10-08 18:00:00 27.1 10 Oeste 27 Sudoeste 0 -- -- 31
2019-10-08 17:00:00 27.1 12 Oeste 24 Oeste 0 -- -- 31
2019-10-08 16:00:00 26.9 12 Oeste 23 Oeste 0 -- -- 32
2019-10-08 15:00:00 26.1 9 Oeste 28 Sudoeste 0 -- -- 34
2019-10-08 14:00:00 24.9 8 Oeste 17 Oeste 0 -- -- 36
2019-10-08 13:00:00 23.5 7 Sur 13 Sur 0 -- -- 42
2019-10-08 12:00:00 21.4 7 Sur 10 Sur 0 -- -- 43
2019-10-08 11:00:00 18.8 4 Sudeste 7 Sudeste 0 -- -- 49
2019-10-08 10:00:00 15.4 3 Sudeste 10 Sudeste 0 -- -- 55
2019-10-08 09:00:00 10.8 5 Nordeste 11 Sudeste 0 -- -- 69
2019-10-08 08:00:00 10.3 4 Nordeste 9 Este 0 -- -- 68
2019-10-08 07:00:00 9.8 3 Norte 10 Este 0 -- -- 69
2019-10-08 06:00:00 10.8 2 Nordeste 13 Este 0 -- -- 65
2019-10-08 05:00:00 11.4 5 Este 10 Este 0 -- -- 63
2019-10-08 04:00:00 11.3 7 Este 10 Sudeste 0 -- -- 63
2019-10-08 03:00:00 11.3 4 Nordeste 7 Sudeste 0 -- -- 63
2019-10-08 02:00:00 12.2 5 Norte 7 Nordeste 0 -- -- 59
2019-10-08 01:00:00 13.1 3 Norte 5 Nordeste 0 -- -- 56
2019-10-08 00:00:00 14.5 5 Este 9 Norte 0 -- -- 52
2019-10-07 23:00:00 15.6 5 Norte 6 Norte 0 -- -- 49
2019-10-07 22:00:00 15.4 4 Noroeste 10 Sudeste 0 -- -- 50
2019-10-07 21:00:00 17.2 5 Norte 10 Noroeste 0 -- -- 45
2019-10-07 20:00:00 19.6 6 Noroeste 19 Noroeste 0 -- -- 39
2019-10-07 19:00:00 22.6 13 Noroeste 23 Noroeste 0 -- -- 33
2019-10-07 18:00:00 23.8 15 Norte 30 Noroeste 0 -- -- 29
2019-10-07 17:00:00 24.4 17 Noroeste 28 Noroeste 0 -- -- 27
2019-10-07 16:00:00 24.1 17 Noroeste 28 Noroeste 0 -- -- 23
2019-10-07 15:00:00 22.7 17 Noroeste 27 Noroeste 0 -- -- 26
2019-10-07 14:00:00 21.6 15 Noroeste 25 Noroeste 0 -- -- 27
2019-10-07 13:00:00 20.1 15 Noroeste 23 Noroeste 0 -- -- 24
2019-10-07 12:00:00 16.5 10 Oeste 21 Noroeste 0 -- -- 41
2019-10-07 11:00:00 12.6 7 Sudoeste 13 Sudoeste 0 -- -- 69
2019-10-07 10:00:00 10 5 Sur 8 Sudoeste 0 -- -- 83
2019-10-07 09:00:00 6.8 4 Norte 5 Norte 0 -- -- 92
2019-10-07 08:00:00 7.5 3 Norte 5 Norte 0 -- -- 90
2019-10-07 07:00:00 8 4 Sur 6 Sur 0 -- -- 90
2019-10-07 06:00:00 8.3 2 Sur 9 Sudoeste 0 -- -- 88
2019-10-07 05:00:00 8.9 4 Sur 7 Sudoeste 0 -- -- 84
2019-10-07 04:00:00 9.3 3 Norte 6 Nordeste 0 -- -- 84
2019-10-07 03:00:00 10.1 3 Norte 6 Noroeste 0 -- -- 82
2019-10-07 02:00:00 11.5 0 Calma 4 Noroeste 0 -- -- 77
2019-10-07 01:00:00 12.3 5 Sudoeste 8 Sudoeste 0 -- -- 73
2019-10-07 00:00:00 12.7 5 Sudoeste 8 Nordeste 0 -- -- 72
2019-10-06 23:00:00 13.6 8 Norte 12 Norte 0 -- -- 69
2019-10-06 22:00:00 13.9 6 Norte 12 Norte 0 -- -- 66
2019-10-06 21:00:00 15.4 6 Norte 15 Norte 0 -- -- 60
2019-10-06 20:00:00 18 10 Noroeste 27 Noroeste 0 -- -- 51
2019-10-06 19:00:00 20.3 17 Noroeste 27 Noroeste 0 -- -- 43
2019-10-06 18:00:00 21.6 18 Noroeste 27 Noroeste 0 -- -- 41
2019-10-06 17:00:00 21.9 14 Oeste 26 Noroeste 0 -- -- 43
2019-10-06 16:00:00 20.9 15 Oeste 34 Oeste 0 -- -- 47
2019-10-06 15:00:00 19.8 6 Oeste 14 Oeste 0 -- -- 50
2019-10-06 14:00:00 17.8 8 Sudoeste 14 Noroeste 0 -- -- 57
2019-10-06 13:00:00 16.2 7 Oeste 15 Oeste 0 -- -- 63
2019-10-06 12:00:00 14.5 5 Oeste 10 Oeste 0 -- -- 66
2019-10-06 11:00:00 13.1 5 Noroeste 10 Oeste 0 -- -- 70
2019-10-06 10:00:00 11.2 3 Sur 7 Sur 0 -- -- 78
2019-10-06 09:00:00 9 0 Calma 4 Noroeste 0 -- -- 84
2019-10-06 08:00:00 8.1 2 Norte 6 Norte 0 -- -- 86
2019-10-06 07:00:00 7.8 3 Norte 5 Norte 0 -- -- 86
2019-10-06 06:00:00 8.6 3 Norte 6 Norte 0 -- -- 84
2019-10-06 05:00:00 9.3 2 Norte 5 Norte 0 -- -- 81
2019-10-06 04:00:00 10.6 0 Calma 3 Noroeste 0 -- -- 78
2019-10-06 03:00:00 10.8 0 Calma 6 Sur 0 -- -- 76
2019-10-06 02:00:00 13 4 Sur 6 Sudoeste 0 -- -- 68
2019-10-06 01:00:00 13 2 Oeste 5 Sudoeste 0 -- -- 66
2019-10-06 00:00:00 14.3 2 Sudoeste 12 Sudoeste 0 -- -- 63
2019-10-05 23:00:00 15.3 3 Norte 8 Norte 0 -- -- 58
2019-10-05 22:00:00 15.9 5 Norte 13 Noroeste 0 -- -- 57
2019-10-05 21:00:00 17.9 8 Noroeste 10 Noroeste 0 -- -- 52
2019-10-05 20:00:00 20.3 5 Noroeste 14 Oeste 0 -- -- 47
2019-10-05 19:00:00 22.7 8 Oeste 21 Oeste 0 -- -- 40
2019-10-05 18:00:00 23.4 9 Noroeste 21 Oeste 0 -- -- 40
2019-10-05 17:00:00 23.8 10 Oeste 23 Oeste 0 -- -- 36
2019-10-05 16:00:00 23.3 12 Sudoeste 22 Oeste 0 -- -- 41
2019-10-05 15:00:00 22.7 7 Oeste 19 Noroeste 0 -- -- 46
2019-10-05 14:00:00 21.3 8 Noroeste 21 Oeste 0 -- -- 52
2019-10-05 13:00:00 20.4 12 Oeste 18 Noroeste 0 -- -- 55
2019-10-05 12:00:00 18.6 7 Oeste 17 Oeste 0 -- -- 62
2019-10-05 11:00:00 16.2 2 Sudoeste 8 Sudeste 0 -- -- 74
2019-10-05 10:00:00 13.4 5 Sudeste 7 Sudeste 0 -- -- 81
2019-10-05 09:00:00 9 0 Calma 5 Nordeste 0 -- -- 91
2019-10-05 08:00:00 8.5 3 Nordeste 5 Nordeste 0 -- -- 91
2019-10-05 07:00:00 8.9 3 Nordeste 4 Nordeste 0 -- -- 90
2019-10-05 06:00:00 9.3 0 Calma 5 Nordeste 0 -- -- 89
2019-10-05 05:00:00 9.4 4 Norte 6 Nordeste 0 -- -- 87
2019-10-05 04:00:00 10.4 3 Nordeste 6 Nordeste 0 -- -- 84
2019-10-05 03:00:00 10.8 3 Norte 5 Nordeste 0 -- -- 82
2019-10-05 02:00:00 10.8 4 Norte 6 Sudeste 0 -- -- 82
2019-10-05 01:00:00 13.6 0 Calma 7 Sudoeste 0 -- -- 75
2019-10-05 00:00:00 14.4 5 Sudoeste 9 Sudoeste 0 -- -- 70
2019-10-04 23:00:00 15.3 3 Oeste 10 Sudoeste 0 -- -- 65
2019-10-04 22:00:00 15.8 7 Sudoeste 10 Noroeste 0 -- -- 64
2019-10-04 21:00:00 17.6 6 Noroeste 10 Oeste 0 -- -- 58
2019-10-04 20:00:00 19.8 6 Noroeste 17 Oeste 0 -- -- 53
2019-10-04 19:00:00 22.1 12 Noroeste 21 Oeste 0 -- -- 47
2019-10-04 18:00:00 23.1 14 Oeste 25 Sudoeste 0 -- -- 45
2019-10-04 17:00:00 23.2 15 Sudoeste 29 Oeste 0 -- -- 45
2019-10-04 16:00:00 22.7 14 Oeste 24 Oeste 0 -- -- 46
2019-10-04 15:00:00 21.8 15 Oeste 28 Oeste 0 -- -- 49
2019-10-04 14:00:00 20.7 13 Noroeste 23 Oeste 0 -- -- 55
2019-10-04 13:00:00 19.1 10 Oeste 18 Oeste 0 -- -- 60
2019-10-04 12:00:00 17.3 6 Oeste 13 Oeste 0 -- -- 62
2019-10-04 11:00:00 15.7 4 Sudoeste 12 Sur 0 -- -- 64
2019-10-04 10:00:00 13.2 2 Norte 5 Norte 0 -- -- 68
2019-10-04 09:00:00 9 4 Norte 8 Norte 0 -- -- 77
2019-10-04 08:00:00 6.9 5 Norte 10 Nordeste 0 -- -- 80
2019-10-04 07:00:00 7.4 5 Nordeste 8 Norte 0 -- -- 81
2019-10-04 06:00:00 7.6 4 Norte 11 Sudeste 0 -- -- 79
2019-10-04 05:00:00 7.9 8 Sudeste 11 Sudeste 0 -- -- 78
2019-10-04 04:00:00 8.3 5 Norte 8 Nordeste 0 -- -- 76
2019-10-04 03:00:00 8.5 2 Este 12 Sudoeste 0 -- -- 75
2019-10-04 02:00:00 9.4 4 Norte 6 Nordeste 0 -- -- 70
2019-10-04 01:00:00 11 4 Norte 5 Nordeste 0 -- -- 65
2019-10-04 00:00:00 12.7 2 Nordeste 4 Norte 0 -- -- 57
2019-10-03 23:00:00 13.6 4 Nordeste 5 Nordeste 0 -- -- 57
2019-10-03 22:00:00 16.4 4 Noroeste 5 Noroeste 0 -- -- 47
2019-10-03 21:00:00 17.3 4 Oeste 11 Oeste 0 -- -- 47
2019-10-03 20:00:00 19.2 8 Oeste 20 Oeste 0 -- -- 43
2019-10-03 19:00:00 21.4 12 Noroeste 22 Noroeste 0 -- -- 38
2019-10-03 18:00:00 21.7 14 Oeste 25 Noroeste 0 -- -- 35
2019-10-03 17:00:00 21.9 15 Oeste 28 Oeste 0 -- -- 35
2019-10-03 16:00:00 21.2 17 Oeste 30 Oeste 0 -- -- 39
2019-10-03 15:00:00 19.9 18 Oeste 31 Oeste 0 -- -- 44
2019-10-03 14:00:00 19.1 17 Oeste 28 Oeste 0 -- -- 46
2019-10-03 13:00:00 17.5 13 Oeste 22 Oeste 0 -- -- 52
2019-10-03 12:00:00 15.5 10 Oeste 17 Noroeste 0 -- -- 60
2019-10-03 11:00:00 12 5 Oeste 9 Oeste 0 -- -- 74
2019-10-03 10:00:00 9.1 5 Sudoeste 7 Sur 0 -- -- 84
2019-10-03 09:00:00 7 3 Noroeste 4 Sudoeste 0 -- -- 89
2019-10-03 08:00:00 6.2 0 Calma 5 Norte 0 -- -- 89
2019-10-03 07:00:00 6.1 4 Norte 6 Nordeste 0 -- -- 89
2019-10-03 06:00:00 6.6 4 Norte 6 Nordeste 0 -- -- 88
2019-10-03 05:00:00 6.8 2 Nordeste 4 Nordeste 0 -- -- 86
2019-10-03 04:00:00 7.7 0 Calma 4 Norte 0 -- -- 83
2019-10-03 03:00:00 8.1 4 Noroeste 5 Noroeste 0 -- -- 82
2019-10-03 02:00:00 9.3 6 Sudoeste 10 Sur 0 -- -- 78
2019-10-03 01:00:00 9.4 5 Sudoeste 12 Nordeste 0 -- -- 75
2019-10-03 00:00:00 10.7 5 Nordeste 11 Nordeste 0 -- -- 71
2019-10-02 23:00:00 11.1 6 Norte 16 Norte 0 -- -- 69
2019-10-02 22:00:00 11.2 9 Norte 11 Norte 0 -- -- 68
2019-10-02 21:00:00 13.3 9 Noroeste 15 Norte 0 -- -- 60
2019-10-02 20:00:00 15.1 12 Norte 19 Norte 0 -- -- 53
2019-10-02 19:00:00 17.2 14 Norte 24 Norte 0 -- -- 47
2019-10-02 18:00:00 18.1 12 Norte 27 Noroeste 0 -- -- 45
2019-10-02 17:00:00 18 13 Norte 29 Noroeste 0 -- -- 45
2019-10-02 16:00:00 18.1 19 Noroeste 35 Noroeste 0 -- -- 47
2019-10-02 15:00:00 17.9 17 Norte 29 Noroeste 0 -- -- 46
2019-10-02 14:00:00 16.8 18 Norte 32 Norte 0 -- -- 50
2019-10-02 13:00:00 15.4 16 Oeste 27 Oeste 0 -- -- 61
2019-10-02 12:00:00 13.8 11 Oeste 21 Oeste 0 -- -- 67
2019-10-02 11:00:00 11.9 10 Oeste 21 Oeste 0 -- -- 75
2019-10-02 10:00:00 10.5 11 Oeste 18 Oeste 0 -- -- 79
2019-10-02 09:00:00 9.2 8 Sudoeste 19 Oeste 0 -- -- 84
2019-10-02 08:00:00 9.5 11 Oeste 19 Oeste 0 -- -- 81
2019-10-02 07:00:00 9.6 10 Oeste 17 Sudoeste 0 -- -- 80
2019-10-02 06:00:00 10.1 9 Oeste 21 Oeste 0 -- -- 79
2019-10-02 05:00:00 10.3 12 Oeste 21 Sudoeste 0 -- -- 77
2019-10-02 04:00:00 10.2 11 Oeste 22 Sudoeste 0 -- -- 77
2019-10-02 03:00:00 11.2 12 Oeste 18 Oeste 0 -- -- 73
2019-10-02 02:00:00 12 7 Oeste 23 Oeste 0 -- -- 69
2019-10-02 01:00:00 13.2 14 Oeste 24 Oeste 0 -- -- 64
2019-10-02 00:00:00 13.9 10 Oeste 20 Oeste 0 -- -- 62
2019-10-01 23:00:00 15.4 10 Oeste 23 Oeste 0 -- -- 58
2019-10-01 22:00:00 16.6 13 Oeste 25 Oeste 0 -- -- 55
2019-10-01 21:00:00 17.7 15 Oeste 29 Oeste 0 -- -- 54
2019-10-01 20:00:00 19.3 11 Oeste 27 Oeste 0 -- -- 46
2019-10-01 19:00:00 21 18 Oeste 36 Oeste 0 -- -- 43
2019-10-01 18:00:00 21.4 16 Oeste 32 Oeste 0 -- -- 44
2019-10-01 17:00:00 21.5 18 Oeste 31 Oeste 0 -- -- 43
2019-10-01 16:00:00 21.1 17 Oeste 34 Oeste 0 -- -- 45
2019-10-01 15:00:00 20.4 22 Oeste 36 Oeste 0 -- -- 50
2019-10-01 14:00:00 19.8 20 Oeste 34 Sudoeste 0 -- -- 56
2019-10-01 13:00:00 19.3 11 Oeste 26 Oeste 0 -- -- 63
2019-10-01 12:00:00 17.7 13 Oeste 23 Oeste 0 -- -- 68
2019-10-01 11:00:00 16.3 13 Oeste 21 Oeste 0 -- -- 66
2019-10-01 10:00:00 14.4 6 Oeste 13 Oeste 0 -- -- 63
2019-10-01 09:00:00 11.8 5 Oeste 6 Oeste 0 -- -- 67
2019-10-01 08:00:00 10.6 4 Noroeste 8 Nordeste 0 -- -- 73
2019-10-01 07:00:00 10.1 5 Norte 7 Norte 0 -- -- 78
2019-10-01 06:00:00 10.6 2 Nordeste 5 Nordeste 0 -- -- 76
2019-10-01 05:00:00 10.9 3 Norte 8 Este 0 -- -- 76
2019-10-01 04:00:00 11.5 3 Nordeste 6 Este 0 -- -- 75
2019-10-01 03:00:00 13 0 Calma 7 Este 0 -- -- 69
2019-10-01 02:00:00 13.8 3 Nordeste 9 Sudeste 0 -- -- 68
2019-10-01 01:00:00 14 2 Norte 6 Nordeste 0 -- -- 67
2019-10-01 00:00:00 14.5 3 Norte 13 Este 0 -- -- 66
2019-09-30 23:00:00 17.1 11 Este 13 Este 0 -- -- 56
2019-09-30 22:00:00 18.1 4 Sudeste 6 Sudeste 0 -- -- 53
2019-09-30 21:00:00 20.3 3 Norte 5 Norte 0 -- -- 46
2019-09-30 20:00:00 22.7 4 Norte 8 Oeste 0 -- -- 42
2019-09-30 19:00:00 25.3 6 Oeste 17 Oeste 0 -- -- 34
2019-09-30 18:00:00 25.8 8 Oeste 18 Oeste 0 -- -- 34
2019-09-30 17:00:00 25.6 10 Oeste 19 Oeste 0 -- -- 39
2019-09-30 16:00:00 25.3 8 Sudoeste 17 Sudoeste 0 -- -- 37
2019-09-30 15:00:00 24.4 6 Sudoeste 21 Sur 0 -- -- 40
2019-09-30 14:00:00 23 6 Sudoeste 15 Sudoeste 0 -- -- 48
2019-09-30 13:00:00 21.6 6 Sudoeste 15 Sudoeste 0 -- -- 54
2019-09-30 12:00:00 20 4 Norte 9 Norte 0 -- -- 60
2019-09-30 11:00:00 18.2 3 Noroeste 6 Noroeste 0 -- -- 66
2019-09-30 10:00:00 15.3 3 Norte 5 Nordeste 0 -- -- 72
2019-09-30 09:00:00 10.2 3 Nordeste 6 Nordeste 0 -- -- 79
2019-09-30 08:00:00 9.2 5 Norte 8 Este 0 -- -- 82
2019-09-30 07:00:00 9.8 5 Sudeste 6 Sudeste 0 -- -- 76
2019-09-30 06:00:00 9.6 4 Norte 5 Norte 0 -- -- 73
2019-09-30 05:00:00 10.8 3 Nordeste 6 Sudeste 0 -- -- 66
2019-09-30 04:00:00 12.3 4 Sudeste 6 Sudeste 0 -- -- 60
2019-09-30 03:00:00 13 0 Calma 6 Sudoeste 0 -- -- 53
2019-09-30 02:00:00 12.9 4 Noroeste 7 Oeste 0 -- -- 55
2019-09-30 01:00:00 13.8 0 Calma 4 Nordeste 0 -- -- 47
2019-09-30 00:00:00 14.4 2 Nordeste 5 Norte 0 -- -- 48
2019-09-29 23:00:00 16.7 2 Noroeste 5 Nordeste 0 -- -- 42
2019-09-29 22:00:00 18.3 4 Norte 6 Oeste 0 -- -- 35
2019-09-29 21:00:00 20.3 3 Sudoeste 4 Sudoeste 0 -- -- 29
2019-09-29 20:00:00 22.7 4 Sudoeste 19 Oeste 0 -- -- 27
2019-09-29 19:00:00 24.9 11 Oeste 25 Sudoeste 0 -- -- 24
2019-09-29 18:00:00 25.5 14 Oeste 30 Sudoeste 0 -- -- 21
2019-09-29 17:00:00 25.6 15 Sudoeste 27 Oeste 0 -- -- 25
2019-09-29 16:00:00 25.1 15 Oeste 31 Oeste 0 -- -- 27
2019-09-29 15:00:00 24.2 16 Oeste 31 Oeste 0 -- -- 31
2019-09-29 14:00:00 23.2 14 Oeste 26 Oeste 0 -- -- 35
2019-09-29 13:00:00 21.3 11 Noroeste 19 Oeste 0 -- -- 38
2019-09-29 12:00:00 19.4 5 Noroeste 9 Oeste 0 -- -- 44
2019-09-29 11:00:00 17.2 4 Norte 8 Nordeste 0 -- -- 47
2019-09-29 10:00:00 14.6 6 Sudeste 8 Sudeste 0 -- -- 58
2019-09-29 09:00:00 9.3 3 Nordeste 8 Nordeste 0 -- -- 78
2019-09-29 08:00:00 8.8 4 Nordeste 12 Este 0 -- -- 76
2019-09-29 07:00:00 9.7 6 Este 10 Este 0 -- -- 73
2019-09-29 06:00:00 9.1 0 Calma 6 Este 0 -- -- 74
2019-09-29 05:00:00 10 4 Este 6 Este 0 -- -- 71
2019-09-29 04:00:00 10 2 Nordeste 10 Este 0 -- -- 71
2019-09-29 03:00:00 11 3 Este 8 Este 0 -- -- 66
2019-09-29 02:00:00 10.8 4 Norte 6 Nordeste 0 -- -- 70
2019-09-29 01:00:00 12.2 4 Norte 7 Nordeste 0 -- -- 64
2019-09-29 00:00:00 13.1 3 Nordeste 6 Nordeste 0 -- -- 61
2019-09-28 23:00:00 14.7 7 Sudeste 10 Sudeste 0 -- -- 53
2019-09-28 22:00:00 16.5 3 Norte 5 Nordeste 0 -- -- 48
2019-09-28 21:00:00 18.7 5 Nordeste 6 Nordeste 0 -- -- 40
2019-09-28 20:00:00 21.3 4 Norte 9 Norte 0 -- -- 39
2019-09-28 19:00:00 24.1 6 Noroeste 15 Oeste 0 -- -- 32
2019-09-28 18:00:00 24.8 7 Oeste 21 Noroeste 0 -- -- 30
2019-09-28 17:00:00 24.6 5 Oeste 14 Sudoeste 0 -- -- 34
2019-09-28 16:00:00 24 6 Sudoeste 18 Oeste 0 -- -- 40
2019-09-28 15:00:00 23 5 Oeste 14 Sudoeste 0 -- -- 41
2019-09-28 14:00:00 21.8 6 Sur 13 Sudoeste 0 -- -- 48
2019-09-28 13:00:00 20.1 4 Sudoeste 11 Oeste 0 -- -- 53
2019-09-28 12:00:00 18.7 4 Sur 12 Sur 0 -- -- 59
2019-09-28 11:00:00 16.4 5 Sur 9 Sur 0 -- -- 67
2019-09-28 10:00:00 13.1 6 Sudeste 9 Sudeste 0 -- -- 76
2019-09-28 09:00:00 9 2 Sudeste 7 Noroeste 0 -- -- 90
2019-09-28 08:00:00 8.8 6 Este 10 Este 0 -- -- 88
2019-09-28 07:00:00 8.5 6 Sudeste 9 Este 0 -- -- 86
2019-09-28 06:00:00 8.2 4 Nordeste 8 Norte 0 -- -- 82
2019-09-28 05:00:00 8.4 4 Nordeste 7 Nordeste 0 -- -- 81
2019-09-28 04:00:00 10.1 0 Calma 4 Nordeste 0 -- -- 76
2019-09-28 03:00:00 11.4 0 Calma 6 Sudoeste 0 -- -- 72
2019-09-28 02:00:00 13 6 Sudoeste 10 Sudoeste 0 -- -- 64
2019-09-28 01:00:00 13.6 4 Sudoeste 9 Sudoeste 0 -- -- 53
2019-09-28 00:00:00 14.7 6 Sudoeste 8 Sudoeste 0 -- -- 45
2019-09-27 23:00:00 15 3 Norte 6 Norte 0 -- -- 47
2019-09-27 22:00:00 17.3 3 Oeste 6 Oeste 0 -- -- 39
2019-09-27 21:00:00 18.6 4 Noroeste 11 Oeste 0 -- -- 34
2019-09-27 20:00:00 20.3 6 Oeste 17 Oeste 0 -- -- 30
2019-09-27 19:00:00 22.4 13 Oeste 22 Oeste 0 -- -- 27
2019-09-27 18:00:00 23.3 12 Oeste 25 Sudoeste 0 -- -- 27
2019-09-27 17:00:00 23.3 14 Oeste 26 Oeste 0 -- -- 29
2019-09-27 16:00:00 22.7 14 Oeste 26 Oeste 0 -- -- 31
2019-09-27 15:00:00 21.8 14 Oeste 24 Oeste 0 -- -- 34
2019-09-27 14:00:00 20.7 13 Sudoeste 22 Oeste 0 -- -- 39
2019-09-27 13:00:00 18.7 10 Sudoeste 19 Oeste 0 -- -- 50
2019-09-27 12:00:00 17.7 8 Oeste 15 Noroeste 0 -- -- 51
2019-09-27 11:00:00 15.3 5 Noroeste 10 Norte 0 -- -- 60
2019-09-27 10:00:00 13.7 3 Sur 6 Sur 0 -- -- 61
2019-09-27 09:00:00 9.3 4 Norte 6 Noroeste 0 -- -- 78
2019-09-27 08:00:00 7.9 3 Nordeste 8 Norte 0 -- -- 80
2019-09-27 07:00:00 8.6 3 Nordeste 6 Nordeste 0 -- -- 78
2019-09-27 06:00:00 8.1 4 Nordeste 5 Norte 0 -- -- 82
2019-09-27 05:00:00 10.4 2 Sudoeste 6 Nordeste 0 -- -- 68
2019-09-27 04:00:00 9.8 3 Norte 5 Norte 0 -- -- 77
2019-09-27 03:00:00 11 3 Norte 5 Nordeste 0 -- -- 71
2019-09-27 02:00:00 11.3 3 Norte 6 Norte 0 -- -- 71
2019-09-27 01:00:00 12.5 4 Nordeste 9 Este 0 -- -- 64
2019-09-27 00:00:00 14.5 6 Sudeste 9 Sudeste 0 -- -- 54
2019-09-26 23:00:00 16.8 4 Nordeste 5 Nordeste 0 -- -- 47
2019-09-26 22:00:00 17.6 4 Norte 6 Oeste 0 -- -- 44
2019-09-26 21:00:00 18.6 6 Noroeste 8 Noroeste 0 -- -- 41
2019-09-26 20:00:00 20.9 6 Noroeste 17 Oeste 0 -- -- 35
2019-09-26 19:00:00 23.4 13 Noroeste 22 Noroeste 0 -- -- 35
2019-09-26 18:00:00 24.2 13 Noroeste 25 Oeste 0 -- -- 33
2019-09-26 17:00:00 24.1 17 Oeste 25 Sudoeste 0 -- -- 37
2019-09-26 16:00:00 23.6 14 Oeste 27 Sudoeste 0 -- -- 40
2019-09-26 15:00:00 22.6 10 Sudoeste 17 Sudoeste 0 -- -- 47
2019-09-26 14:00:00 21.2 6 Noroeste 15 Sudoeste 0 -- -- 52
2019-09-26 13:00:00 19.5 5 Sur 14 Sudoeste 0 -- -- 55
2019-09-26 12:00:00 17.7 3 Este 9 Sur 0 -- -- 63
2019-09-26 11:00:00 16.4 3 Sudoeste 6 Oeste 0 -- -- 66
2019-09-26 10:00:00 13.9 3 Sudeste 8 Sudeste 0 -- -- 74
2019-09-26 09:00:00 10.5 5 Sudeste 8 Sudeste 0 -- -- 85
2019-09-26 08:00:00 8.6 3 Nordeste 5 Nordeste 0 -- -- 90
2019-09-26 07:00:00 8.3 3 Norte 5 Nordeste 0 -- -- 91
2019-09-26 06:00:00 8.8 2 Norte 4 Este 0 -- -- 89
2019-09-26 05:00:00 9.1 2 Nordeste 6 Nordeste 0 -- -- 88
2019-09-26 04:00:00 9.6 3 Norte 6 Nordeste 0 -- -- 86
2019-09-26 03:00:00 10.5 4 Este 8 Este 0 -- -- 83
2019-09-26 02:00:00 10.7 3 Este 5 Este 0 -- -- 83
2019-09-26 01:00:00 11.5 3 Nordeste 6 Nordeste 0 -- -- 81
2019-09-26 00:00:00 12.3 4 Norte 7 Norte 0 -- -- 77
2019-09-25 23:00:00 13.4 3 Norte 6 Noroeste 0 -- -- 72
2019-09-25 22:00:00 14.6 4 Noroeste 15 Oeste 0 -- -- 67
2019-09-25 21:00:00 15.6 6 Oeste 12 Oeste 0 -- -- 62
2019-09-25 20:00:00 16.7 6 Oeste 12 Sudoeste 0 -- -- 59
2019-09-25 19:00:00 17.8 8 Oeste 16 Oeste 0 -- -- 54
2019-09-25 18:00:00 17.9 8 Oeste 20 Sudoeste 0 -- -- 52
2019-09-25 17:00:00 18.3 8 Oeste 21 Oeste 0 -- -- 53
2019-09-25 16:00:00 18 10 Noroeste 21 Oeste 0 -- -- 55
2019-09-25 15:00:00 17.2 12 Oeste 22 Oeste 0 -- -- 56
2019-09-25 14:00:00 15.8 11 Oeste 23 Oeste 0 -- -- 62
2019-09-25 13:00:00 14.7 11 Oeste 21 Oeste 0 -- -- 67
2019-09-25 12:00:00 13.5 10 Noroeste 18 Oeste 0 -- -- 72
2019-09-25 11:00:00 11.7 8 Oeste 18 Sudoeste 0 -- -- 78
2019-09-25 10:00:00 10.7 7 Oeste 13 Oeste 0 -- -- 86
2019-09-25 09:00:00 9 3 Oeste 9 Oeste 0 -- -- 91
2019-09-25 08:00:00 8.8 8 Oeste 12 Oeste 0 -- -- 90
2019-09-25 07:00:00 9.5 5 Oeste 13 Oeste 0 -- -- 88
2019-09-25 06:00:00 10.1 9 Oeste 15 Oeste 0 -- -- 86
2019-09-25 05:00:00 10.6 4 Oeste 16 Oeste 0 -- -- 81
2019-09-25 04:00:00 12.3 11 Oeste 27 Oeste 0 -- -- 73
2019-09-25 03:00:00 13.5 11 Oeste 23 Oeste 0 -- -- 74
2019-09-25 02:00:00 14.3 12 Oeste 27 Oeste 0 -- -- 72
2019-09-25 01:00:00 15.1 12 Oeste 24 Oeste 0 -- -- 71
2019-09-25 00:00:00 15.8 13 Oeste 20 Sudoeste 0 -- -- 83
2019-09-24 23:00:00 16 11 Oeste 20 Sudoeste 0 -- -- 85
2019-09-24 22:00:00 15.7 2 Sur 12 Sudoeste 0 -- -- 83
2019-09-24 21:00:00 17 6 Sudoeste 18 Sudoeste 0 -- -- 77
2019-09-24 20:00:00 19.1 13 Oeste 26 Oeste 0 -- -- 67
2019-09-24 19:00:00 19.9 13 Sudoeste 25 Oeste 0 -- -- 66
2019-09-24 18:00:00 18.9 10 Sudoeste 17 Sudoeste 0 -- -- 71
2019-09-24 17:00:00 18.5 13 Oeste 26 Sudoeste 0 -- -- 70
2019-09-24 16:00:00 18.9 18 Oeste 38 Oeste 0 -- -- 67
2019-09-24 15:00:00 19.1 22 Oeste 33 Oeste 0 -- -- 66
2019-09-24 14:00:00 18.8 18 Sudoeste 28 Sudoeste 0 -- -- 65
2019-09-24 13:00:00 17.1 14 Sudoeste 27 Sudoeste 0 -- -- 68
2019-09-24 12:00:00 15.2 9 Sudoeste 31 Sudoeste 0 -- -- 71
2019-09-24 11:00:00 14.5 12 Oeste 19 Oeste 0 -- -- 73
2019-09-24 10:00:00 12.8 4 Norte 7 Norte 0 -- -- 82
2019-09-24 09:00:00 10.6 3 Nordeste 8 Nordeste 0 -- -- 88
2019-09-24 08:00:00 9.6 5 Este 8 Este 0 -- -- 87
2019-09-24 07:00:00 10.4 4 Sudeste 7 Sudeste 0 -- -- 82
2019-09-24 06:00:00 11 2 Oeste 8 Sudoeste 0 -- -- 81
2019-09-24 05:00:00 10.6 2 Noroeste 6 Noroeste 0 -- -- 84
2019-09-24 04:00:00 10.2 3 Norte 5 Nordeste 0 -- -- 87
2019-09-24 03:00:00 11 3 Norte 5 Este 0 -- -- 84
2019-09-24 02:00:00 11.5 0 Calma 5 Este 0 -- -- 81
2019-09-24 01:00:00 12.4 0 Calma 10 Sudeste 0 -- -- 78
2019-09-24 00:00:00 13.3 7 Sudeste 9 Sudeste 0 -- -- 74
2019-09-23 23:00:00 14.7 0 Calma 2 Noroeste 0 -- -- 67
2019-09-23 22:00:00 15.4 0 Calma 4 Noroeste 0 -- -- 67
2019-09-23 21:00:00 16.5 2 Noroeste 4 Noroeste 0 -- -- 60
2019-09-23 20:00:00 18.2 5 Oeste 13 Oeste 0 -- -- 56
2019-09-23 19:00:00 20 7 Oeste 21 Oeste 0 -- -- 48
2019-09-23 18:00:00 19.9 10 Oeste 23 Oeste 0 -- -- 46
2019-09-23 17:00:00 20.6 12 Sudoeste 21 Sudoeste 0 -- -- 46
2019-09-23 16:00:00 19.3 7 Oeste 20 Sudoeste 0 -- -- 52
2019-09-23 15:00:00 17.9 5 Sur 19 Oeste 0 -- -- 55
2019-09-23 14:00:00 17.5 9 Sudoeste 24 Sudoeste 0 -- -- 58
2019-09-23 13:00:00 15.6 5 Noroeste 10 Oeste 0 -- -- 64
2019-09-23 12:00:00 14.3 3 Sudoeste 8 Sudoeste 0 -- -- 69
2019-09-23 11:00:00 12.6 3 Sudeste 8 Sudeste 0 -- -- 76
2019-09-23 10:00:00 11.3 3 Nordeste 6 Este 0 -- -- 87
2019-09-23 09:00:00 8.1 2 Nordeste 5 Nordeste 0 -- -- 94
2019-09-23 08:00:00 6.9 3 Nordeste 7 Este 0 -- -- 92
2019-09-23 07:00:00 7.3 2 Norte 4 Nordeste 0 -- -- 91
2019-09-23 06:00:00 7.6 2 Nordeste 4 Norte 0 -- -- 92
2019-09-23 05:00:00 7.8 2 Norte -- -- 0 -- -- 92
2019-09-23 04:00:00 8.7 2 Norte 3 Norte 0 -- -- 89
2019-09-23 03:00:00 9.2 2 Norte 5 Norte 0 -- -- 89
2019-09-23 02:00:00 9.5 3 Norte 4 Norte 0 -- -- 87
2019-09-23 01:00:00 10.6 2 Sudoeste 4 Sudoeste 0 -- -- 80
2019-09-23 00:00:00 11.4 0 Calma 3 Sudoeste 0 -- -- 78
2019-09-22 23:00:00 12.5 4 Sur 5 Sur 0 -- -- 72
2019-09-22 22:00:00 13.5 2 Noroeste 13 Oeste 0 -- -- 66
2019-09-22 21:00:00 14.6 10 Oeste 16 Oeste 0 -- -- 61
2019-09-22 20:00:00 15.9 8 Oeste 19 Sudoeste 0 -- -- 59
2019-09-22 19:00:00 17.4 12 Oeste 27 Oeste 0 -- -- 54
2019-09-22 18:00:00 16.8 12 Oeste 25 Oeste 0 -- -- 57
2019-09-22 17:00:00 17.7 17 Oeste 27 Oeste 0 -- -- 55
2019-09-22 16:00:00 16.6 13 Oeste 26 Oeste 0 -- -- 62
2019-09-22 15:00:00 16.6 15 Noroeste 26 Oeste 0 -- -- 65
2019-09-22 14:00:00 16.3 16 Oeste 30 Oeste 0 -- -- 68
2019-09-22 13:00:00 14.5 15 Oeste 26 Oeste 0 -- -- 74
2019-09-22 12:00:00 13.8 14 Oeste 23 Oeste 0 -- -- 80
2019-09-22 11:00:00 12.3 14 Sudoeste 25 Sudoeste 0 -- -- 90
2019-09-22 10:00:00 11.4 12 Oeste 22 Oeste 0 -- -- 93
2019-09-22 09:00:00 11 14 Sudoeste 21 Sudoeste 0 -- -- 94
2019-09-22 08:00:00 11 14 Sudoeste 22 Sudoeste 0.2 -- -- 94
2019-09-22 07:00:00 11.2 10 Oeste 24 Noroeste 2 -- -- 94
2019-09-22 06:00:00 11.6 18 Oeste 42 Oeste 0.6 -- -- 92
2019-09-22 05:00:00 15.1 21 Sudoeste 36 Sudoeste 0.2 -- -- 88
2019-09-22 04:00:00 15.3 7 Sudeste 12 Sudeste 0.2 -- -- 87
2019-09-22 03:00:00 15.6 5 Sudeste 10 Este 0 -- -- 84
2019-09-22 02:00:00 15.8 0 Calma 9 Sur 0 -- -- 83
2019-09-22 01:00:00 16 4 Sudeste 13 Sur 0 -- -- 84
2019-09-22 00:00:00 16.1 8 Sudeste 15 Sur 0 -- -- 84
2019-09-21 23:00:00 16.1 9 Sur 14 Sur 0 -- -- 86
2019-09-21 22:00:00 15.8 2 Sur 10 Sudeste 0 -- -- 87
2019-09-21 21:00:00 15.7 3 Este 15 Este 0 -- -- 89
2019-09-21 20:00:00 16 5 Sudeste 9 Sudeste 0 -- -- 89
2019-09-21 19:00:00 16 0 Calma 7 Oeste 0 -- -- 88
2019-09-21 18:00:00 15.9 5 Oeste 30 Oeste 0.4 -- -- 88
2019-09-21 17:00:00 18.3 13 Sudoeste 22 Sudoeste 0 -- -- 72
2019-09-21 16:00:00 17.6 8 Sudoeste 26 Sudoeste 0.4 -- -- 77
2019-09-21 15:00:00 19 9 Sudoeste 20 Sur 0 -- -- 60
2019-09-21 14:00:00 19 14 Sur 23 Sur 0 -- -- 63
2019-09-21 13:00:00 18.6 10 Sur 19 Sudeste 0 -- -- 65
2019-09-21 12:00:00 18.3 13 Sur 22 Sur 0 -- -- 68
2019-09-21 11:00:00 17.2 10 Sur 14 Sudeste 0 -- -- 76
2019-09-21 10:00:00 15.9 6 Sudeste 12 Sudeste 0 -- -- 84
2019-09-21 09:00:00 13.4 10 Este 13 Este 0 -- -- 93
2019-09-21 08:00:00 12.9 8 Este 15 Sudeste 0 -- -- 92
2019-09-21 07:00:00 13.2 6 Este 15 Este 0.2 -- -- 91
2019-09-21 06:00:00 13.4 7 Sudeste 17 Sudeste 0.4 -- -- 90
2019-09-21 05:00:00 13.2 12 Este 19 Este 0 -- -- 91
2019-09-21 04:00:00 13.4 14 Sudeste 26 Sudeste 0.4 -- -- 90
2019-09-21 03:00:00 13 6 Este 18 Este 0 -- -- 92
2019-09-21 02:00:00 13.1 8 Este 15 Nordeste 0.4 -- -- 91
2019-09-21 01:00:00 13.4 7 Este 27 Sur 3.2 -- -- 90
2019-09-21 00:00:00 14.7 26 Sudeste 43 Sur 1.2 -- -- 83
2019-09-20 23:00:00 18 18 Sur 28 Sur 0 -- -- 72
2019-09-20 22:00:00 17.7 13 Sudeste 21 Sudeste 0 -- -- 76
2019-09-20 21:00:00 17.8 12 Sudeste 19 Sudeste 0 -- -- 76
2019-09-20 20:00:00 19.4 13 Sudeste 23 Sur 0 -- -- 70
2019-09-20 19:00:00 19.6 10 Sur 27 Sudeste 0.6 -- -- 75
2019-09-20 18:00:00 21.8 8 Este 12 Sudeste 0 -- -- 68
2019-09-20 17:00:00 18.8 8 Nordeste 28 Sudeste 4.4 -- -- 76
2019-09-20 16:00:00 22.8 21 Sudeste 38 Este 0 -- -- 52
2019-09-20 15:00:00 24.7 15 Sudeste 33 Sudeste 0 -- -- 46
2019-09-20 14:00:00 24.1 18 Sudeste 36 Sudeste 0 -- -- 49
2019-09-20 13:00:00 22.6 20 Sudeste 32 Este 0 -- -- 56
2019-09-20 12:00:00 19.8 19 Sudeste 36 Sudeste 0 -- -- 67
2019-09-20 11:00:00 18.7 23 Sudeste 38 Este 0 -- -- 70
2019-09-20 10:00:00 16.9 19 Sudeste 33 Este 0 -- -- 76
2019-09-20 09:00:00 16 17 Este 30 Este 0 -- -- 77
2019-09-20 08:00:00 15.5 18 Este 29 Este 0 -- -- 77
2019-09-20 07:00:00 15.9 17 Este 28 Este 0 -- -- 74
2019-09-20 06:00:00 15.8 8 Este 20 Este 0 -- -- 76
2019-09-20 05:00:00 15.8 9 Este 21 Este 0 -- -- 77
2019-09-20 04:00:00 16.6 13 Este 21 Este 0 -- -- 75
2019-09-20 03:00:00 17 13 Este 24 Este 0 -- -- 74
2019-09-20 02:00:00 17.4 14 Este 25 Este 0 -- -- 70
2019-09-20 01:00:00 18 15 Este 25 Este 0 -- -- 65
2019-09-20 00:00:00 17.6 13 Este 21 Sudeste 0 -- -- 66
2019-09-19 23:00:00 17.3 8 Este 12 Este 0 -- -- 68
2019-09-19 22:00:00 18.5 9 Sudeste 10 Este 0 -- -- 63
2019-09-19 21:00:00 20.1 5 Sudeste 9 Sudeste 0 -- -- 56
2019-09-19 20:00:00 23.4 3 Noroeste 10 Oeste 0 -- -- 42
2019-09-19 19:00:00 24.9 7 Sudoeste 19 Sur 0 -- -- 37
2019-09-19 18:00:00 25.2 6 Oeste 18 Noroeste 0 -- -- 38
2019-09-19 17:00:00 25.2 7 Oeste 19 Oeste 0 -- -- 40
2019-09-19 16:00:00 25 10 Oeste 26 Oeste 0 -- -- 37
2019-09-19 15:00:00 24.3 8 Oeste 17 Sudoeste 0 -- -- 45
2019-09-19 14:00:00 23.2 5 Sudeste 15 Sur 0 -- -- 51
2019-09-19 13:00:00 22.2 7 Sur 15 Sudeste 0 -- -- 55
2019-09-19 12:00:00 20.8 9 Sudeste 16 Sur 0 -- -- 62
2019-09-19 11:00:00 18.8 9 Este 17 Este 0 -- -- 68
2019-09-19 10:00:00 16.3 6 Este 13 Este 0 -- -- 78
2019-09-19 09:00:00 13.4 0 Calma 6 Nordeste 0 -- -- 89
2019-09-19 08:00:00 11.7 3 Nordeste 5 Este 0 -- -- 90
2019-09-19 07:00:00 12.2 3 Este 6 Sudeste 0 -- -- 87
2019-09-19 06:00:00 12.6 3 Este 8 Nordeste 0 -- -- 87
2019-09-19 05:00:00 12.9 5 Nordeste 8 Nordeste 0 -- -- 87
2019-09-19 04:00:00 13.1 5 Nordeste 12 Nordeste 0 -- -- 86
2019-09-19 03:00:00 13.5 4 Nordeste 10 Este 0 -- -- 85
2019-09-19 02:00:00 14.3 7 Nordeste 11 Nordeste 0 -- -- 83
2019-09-19 01:00:00 14.6 4 Norte 8 Este 0 -- -- 81
2019-09-19 00:00:00 15.1 7 Este 10 Sudeste 0 -- -- 78
2019-09-18 23:00:00 15.9 7 Sudeste 9 Sudeste 0 -- -- 76
2019-09-18 22:00:00 16.4 4 Sudeste 8 Sudeste 0 -- -- 75
2019-09-18 21:00:00 17.7 3 Nordeste 9 Norte 0 -- -- 72
2019-09-18 20:00:00 18.8 4 Nordeste 20 Nordeste 0 -- -- 65
2019-09-18 19:00:00 19.8 12 Nordeste 29 Nordeste 0 -- -- 62
2019-09-18 18:00:00 23.2 7 Noroeste 17 Noroeste 0 -- -- 47
2019-09-18 17:00:00 23.6 7 Oeste 17 Oeste 0 -- -- 49
2019-09-18 16:00:00 23 5 Noroeste 17 Oeste 0 -- -- 48
2019-09-18 15:00:00 22.1 6 Sudoeste 18 Oeste 0 -- -- 52
2019-09-18 14:00:00 20.7 6 Oeste 14 Oeste 0 -- -- 63
2019-09-18 13:00:00 18.7 5 Sur 11 Sur 0 -- -- 76
2019-09-18 12:00:00 16.3 4 Sudeste 11 Sudeste 0 -- -- 87
2019-09-18 11:00:00 14.6 9 Sudeste 15 Sudeste 0 -- -- 94
2019-09-18 10:00:00 13.8 5 Sudeste 17 Este 0 -- -- 95
2019-09-18 09:00:00 12.5 5 Sudeste 11 Este 0 -- -- 96
2019-09-18 08:00:00 12.1 4 Sudeste 8 Sudeste 0 -- -- 94
2019-09-18 07:00:00 12.6 2 Noroeste 5 Sudoeste 0 -- -- 94
2019-09-18 06:00:00 12.7 0 Calma 4 Norte 0.2 -- -- 93
2019-09-18 05:00:00 13.2 4 Sudeste 12 Noroeste 0 -- -- 92
2019-09-18 04:00:00 13.7 9 Noroeste 16 Oeste 0 -- -- 92
2019-09-18 03:00:00 13.8 3 Noroeste 23 Nordeste 0 -- -- 92
2019-09-18 02:00:00 14.2 9 Nordeste 12 Nordeste 3 -- -- 93
2019-09-18 01:00:00 14.5 5 Nordeste 13 Sudoeste 4.2 -- -- 91
2019-09-18 00:00:00 15.1 4 Sudoeste 33 Sudeste 1.2 -- -- 86
2019-09-17 23:00:00 16.5 13 Oeste 29 Sudoeste 12 -- -- 77
2019-09-17 22:00:00 18.1 31 Sur 60 Sudeste 9.6 -- -- 74
2019-09-17 21:00:00 21.7 10 Nordeste 18 Nordeste 0 -- -- 59